Time;durP1;ratioP1;P1;durP2;ratioP2;P2;SDS_P1;SDS_P2;PMS_P1;PMS_P2;Temp;Humidity;BMP_temperature;BMP_pressure;BME280_temperature;BME280_humidity;BME280_pressure;Samples;Min_cycle;Max_cycle;Signal;HPM_P1;HPM_P2
2023/09/25 00:01:28;;;;;;;0.00;0.00;;;;;;;18.98;65.67;100430.00;5367362;26;33920;-81
2023/09/25 00:03:56;;;;;;;0.00;0.00;;;;;;;19.30;64.37;100416.19;5311186;26;34430;-80
2023/09/25 00:06:24;;;;;;;0.00;0.00;;;;;;;19.30;64.43;100426.91;5366757;26;33663;-80
2023/09/25 00:08:52;;;;;;;0.25;0.25;;;;;;;19.19;65.20;100425.00;5366911;26;34384;-81
2023/09/25 00:11:20;;;;;;;0.10;0.10;;;;;;;19.13;65.62;100423.59;5367124;26;33497;-79
2023/09/25 00:13:48;;;;;;;0.00;0.00;;;;;;;19.13;65.90;100418.25;5347416;26;32877;-79
2023/09/25 00:16:16;;;;;;;0.10;0.00;;;;;;;19.37;64.63;100414.78;5366184;26;33867;-79
2023/09/25 00:18:50;;;;;;;0.00;0.00;;;;;;;19.25;65.11;100411.16;5366362;26;33304;-79
2023/09/25 00:21:18;;;;;;;0.47;0.47;;;;;;;19.42;64.68;100412.66;5366162;26;34482;-79
2023/09/25 00:23:47;;;;;;;0.20;0.10;;;;;;;19.57;64.08;100405.38;5366940;26;33966;-79
2023/09/25 00:26:14;;;;;;;0.03;0.00;;;;;;;19.45;64.11;100401.72;5366892;26;34487;-79
2023/09/25 00:28:43;;;;;;;0.00;0.00;;;;;;;19.07;65.79;100410.63;5329861;26;33553;-79
2023/09/25 00:31:11;;;;;;;0.28;0.28;;;;;;;19.36;64.24;100405.91;5366235;26;33655;-79
2023/09/25 00:33:41;;;;;;;0.20;0.10;;;;;;;19.05;65.25;100393.81;5386677;26;33896;-79
2023/09/25 00:36:10;;;;;;;0.20;0.00;;;;;;;19.33;63.93;100391.91;5348090;26;33281;-79
2023/09/25 00:38:38;;;;;;;9.32;0.30;;;;;;;19.16;64.53;100396.59;5366538;26;33622;-79
2023/09/25 00:41:06;;;;;;;0.00;0.00;;;;;;;19.26;63.74;100390.59;5386551;26;34643;-79
2023/09/25 00:43:33;;;;;;;0.22;0.22;;;;;;;19.22;63.81;100397.97;5365229;26;34087;-79
2023/09/25 00:46:02;;;;;;;0.93;0.82;;;;;;;19.57;61.01;100400.00;5348892;26;34020;-79
2023/09/25 00:48:30;;;;;;;0.35;0.20;;;;;;;19.24;63.67;100401.44;5367559;26;33562;-80
2023/09/25 00:51:00;;;;;;;0.15;0.10;;;;;;;18.96;64.88;100398.97;5330491;26;33884;-79
2023/09/25 00:53:29;;;;;;;0.00;0.00;;;;;;;19.10;64.54;100401.53;5330942;26;33158;-80
2023/09/25 00:55:57;;;;;;;0.05;0.05;;;;;;;19.34;63.45;100393.59;5367465;26;34451;-80
2023/09/25 00:58:25;;;;;;;1.02;0.37;;;;;;;19.31;62.07;100391.12;5349021;26;33682;-79
2023/09/25 01:00:54;;;;;;;0.00;0.00;;;;;;;19.16;63.58;100387.72;5348658;26;34084;-80
2023/09/25 01:03:22;;;;;;;0.20;0.20;;;;;;;19.50;62.20;100391.53;5366645;26;34930;-79
2023/09/25 01:05:50;;;;;;;0.00;0.00;;;;;;;19.24;63.12;100397.91;5348795;26;33703;-81
2023/09/25 01:08:18;;;;;;;0.00;0.00;;;;;;;19.33;62.63;100399.94;5367793;26;33631;-81
2023/09/25 01:10:46;;;;;;;0.00;0.00;;;;;;;19.26;64.48;100423.59;5367446;26;34000;-80
2023/09/25 01:13:15;;;;;;;0.13;0.13;;;;;;;19.30;63.92;100418.88;5330544;26;33105;-80
2023/09/25 01:15:45;;;;;;;0.00;0.00;;;;;;;19.33;64.05;100421.34;5328530;26;33477;-80
2023/09/25 01:18:13;;;;;;;0.00;0.00;;;;;;;19.47;63.48;100428.41;5326885;26;33460;-80
2023/09/25 01:20:41;;;;;;;0.45;0.40;;;;;;;19.57;63.36;100430.31;5385815;26;34688;-80
2023/09/25 01:23:09;;;;;;;0.00;0.00;;;;;;;19.58;63.60;100432.03;5367676;26;34455;-80
2023/09/25 01:25:36;;;;;;;0.17;0.17;;;;;;;19.69;62.99;100424.09;5348596;26;33391;-81
2023/09/25 01:28:04;;;;;;;0.00;0.00;;;;;;;19.46;64.31;100432.88;5367429;26;33284;-80
2023/09/25 01:30:32;;;;;;;0.00;0.00;;;;;;;19.60;63.73;100439.97;5368040;26;32814;-80
2023/09/25 01:33:00;;;;;;;0.10;0.10;;;;;;;19.40;64.26;100431.50;5330472;26;33272;-80
2023/09/25 01:35:27;;;;;;;3.05;0.95;;;;;;;19.18;65.52;100437.53;5330370;26;32665;-80
2023/09/25 01:38:00;;;;;;;0.00;0.00;;;;;;;19.05;66.34;100438.47;5349178;26;33617;-80
2023/09/25 01:40:27;;;;;;;0.10;0.10;;;;;;;19.22;65.65;100431.94;5367580;26;33618;-81
2023/09/25 01:42:56;;;;;;;0.37;0.15;;;;;;;19.18;65.88;100431.31;5349296;26;33820;-81
2023/09/25 01:45:23;;;;;;;0.10;0.10;;;;;;;19.36;64.87;100419.28;5367118;26;33736;-81
2023/09/25 01:47:52;;;;;;;0.10;0.10;;;;;;;19.64;62.83;100418.22;5349042;26;32923;-81
2023/09/25 01:50:25;;;;;;;0.13;0.13;;;;;;;19.35;63.59;100412.22;5329745;26;34838;-81
2023/09/25 01:53:00;;;;;;;0.20;0.20;;;;;;;19.31;64.17;100397.34;5367996;26;33837;-81
2023/09/25 01:55:35;;;;;;;0.25;0.17;;;;;;;19.54;63.51;100401.06;5367318;26;34787;-81
2023/09/25 01:58:03;;;;;;;3.42;0.30;;;;;;;19.47;63.85;100389.09;5368310;26;33724;-81
2023/09/25 02:00:31;;;;;;;0.15;0.15;;;;;;;19.51;63.87;100390.56;5367690;26;33684;-81
2023/09/25 02:02:59;;;;;;;7.65;0.20;;;;;;;19.41;64.56;100374.28;5349354;26;33927;-82
2023/09/25 02:05:27;;;;;;;0.00;0.00;;;;;;;19.58;63.77;100358.84;5349044;26;33563;-81
2023/09/25 02:07:55;;;;;;;0.10;0.10;;;;;;;19.87;62.67;100349.56;5367744;26;33161;-81
2023/09/25 02:10:24;;;;;;;0.20;0.20;;;;;;;19.66;63.69;100346.66;5387817;26;34607;-81
2023/09/25 02:12:51;;;;;;;1.45;1.27;;;;;;;19.56;64.57;100350.94;5330555;26;33708;-82
2023/09/25 02:15:19;;;;;;;2.22;0.20;;;;;;;19.49;64.76;100344.28;5387521;26;34929;-81
2023/09/25 02:17:47;;;;;;;0.00;0.00;;;;;;;19.50;64.79;100343.31;5348910;26;33949;-81
2023/09/25 02:20:20;;;;;;;0.00;0.00;;;;;;;19.46;65.23;100347.19;5349225;26;34803;-83
2023/09/25 02:22:50;;;;;;;0.00;0.00;;;;;;;19.44;65.18;100333.06;5348759;26;33152;-81
2023/09/25 02:25:18;;;;;;;0.00;0.00;;;;;;;19.42;65.33;100335.00;5349122;26;33843;-81
2023/09/25 02:27:46;;;;;;;0.00;0.00;;;;;;;19.65;64.29;100330.66;5347957;26;32694;-81
2023/09/25 02:30:15;;;;;;;0.22;0.22;;;;;;;19.51;65.30;100320.91;5368084;26;33993;-80
2023/09/25 02:32:43;;;;;;;0.10;0.10;;;;;;;19.61;64.54;100314.00;5348492;26;33557;-80
2023/09/25 02:35:12;;;;;;;0.10;0.10;;;;;;;19.47;65.10;100295.34;5349461;26;33935;-80
2023/09/25 02:37:40;;;;;;;0.10;0.08;;;;;;;19.40;65.28;100296.75;5367456;26;33602;-80
2023/09/25 02:40:14;;;;;;;0.15;0.15;;;;;;;19.46;64.91;100301.66;5349816;26;34718;-80
2023/09/25 02:42:45;;;;;;;0.20;0.20;;;;;;;19.36;65.60;100314.00;5346088;26;95909;-80
2023/09/25 02:45:14;;;;;;;0.00;0.00;;;;;;;19.37;65.95;100326.41;5367779;26;34878;-79
2023/09/25 02:47:42;;;;;;;0.35;0.35;;;;;;;19.66;64.21;100325.22;5349150;26;33711;-80
2023/09/25 02:50:10;;;;;;;0.00;0.00;;;;;;;20.01;59.23;100324.44;5366989;26;33806;-80
2023/09/25 02:52:39;;;;;;;0.05;0.05;;;;;;;19.96;59.29;100323.91;5348853;26;33810;-80
2023/09/25 02:55:07;;;;;;;2.72;0.90;;;;;;;19.77;59.48;100331.59;5366284;26;34108;-80
2023/09/25 02:57:35;;;;;;;0.00;0.00;;;;;;;19.93;58.82;100321.44;5367180;26;32931;-80
2023/09/25 03:00:11;;;;;;;0.00;0.00;;;;;;;19.80;59.62;100318.00;5348913;26;32949;-80
2023/09/25 03:02:39;;;;;;;0.35;0.03;;;;;;;19.77;59.89;100305.66;5368398;26;34813;-81
2023/09/25 03:05:09;;;;;;;0.08;0.08;;;;;;;20.11;57.76;100319.22;5367429;26;34156;-80
2023/09/25 03:07:39;;;;;;;0.00;0.00;;;;;;;20.11;57.94;100308.50;5348453;26;32596;-80
2023/09/25 03:10:08;;;;;;;6.03;1.20;;;;;;;20.00;57.86;100317.38;5387422;26;33878;-80
2023/09/25 03:12:36;;;;;;;0.05;0.05;;;;;;;20.07;57.52;100329.31;5367095;26;33940;-79
2023/09/25 03:15:07;;;;;;;2.47;0.60;;;;;;;19.97;57.93;100338.16;5348236;26;34274;-79
2023/09/25 03:17:35;;;;;;;0.08;0.08;;;;;;;20.02;57.79;100344.91;5367433;26;33703;-79
2023/09/25 03:20:07;;;;;;;0.43;0.43;;;;;;;19.99;58.29;100350.50;5348423;26;34553;-80
2023/09/25 03:22:35;;;;;;;0.15;0.15;;;;;;;19.99;58.06;100357.66;5349359;26;34163;-80
2023/09/25 03:25:03;;;;;;;0.40;0.30;;;;;;;20.04;57.56;100358.22;5347348;26;33418;-80
2023/09/25 03:27:31;;;;;;;1.17;0.43;;;;;;;20.02;57.77;100358.31;5367011;26;34338;-80
2023/09/25 03:29:58;;;;;;;0.25;0.25;;;;;;;20.10;57.75;100355.06;5362998;26;33548;-80
2023/09/25 03:32:26;;;;;;;1.02;0.62;;;;;;;19.73;59.20;100362.28;5347497;26;34636;-80
2023/09/25 03:34:54;;;;;;;0.00;0.00;;;;;;;19.51;60.43;100370.97;5347822;26;34377;-80
2023/09/25 03:37:21;;;;;;;0.00;0.00;;;;;;;19.42;61.26;100359.09;5329855;26;32191;-79
2023/09/25 03:39:49;;;;;;;0.00;0.00;;;;;;;19.43;61.20;100368.84;5348523;26;33698;-80
2023/09/25 03:42:16;;;;;;;1.48;0.37;;;;;;;19.35;61.61;100384.59;5348783;26;32765;-80
2023/09/25 03:44:44;;;;;;;0.43;0.25;;;;;;;19.00;63.36;100417.38;5362928;26;34592;-80
2023/09/25 03:47:12;;;;;;;0.15;0.05;;;;;;;18.95;63.57;100427.53;5362838;26;32548;-80
2023/09/25 03:49:42;;;;;;;2.75;0.75;;;;;;;19.02;62.97;100430.63;5344369;26;33909;-80
2023/09/25 03:52:09;;;;;;;0.25;0.25;;;;;;;18.94;63.34;100439.19;5363244;26;33551;-80
2023/09/25 03:54:37;;;;;;;0.08;0.08;;;;;;;19.00;63.46;100448.62;5362571;26;34571;-80
2023/09/25 03:57:04;;;;;;;0.13;0.03;;;;;;;18.97;63.36;100455.03;5362088;26;33624;-80
2023/09/25 03:59:32;;;;;;;0.00;0.00;;;;;;;19.06;62.92;100465.13;5344607;26;33907;-80
2023/09/25 04:05:05;;;;;;;0.00;0.00;;;;;;;19.43;60.93;100457.22;5363983;26;34762;-80
2023/09/25 04:07:33;;;;;;;0.03;0.03;;;;;;;19.43;60.08;100467.94;5344394;26;33146;-80
2023/09/25 04:10:02;;;;;;;0.00;0.00;;;;;;;19.30;60.52;100477.78;5362962;26;33260;-80
2023/09/25 04:12:34;;;;;;;0.00;0.00;;;;;;;19.59;59.65;100473.91;5326190;26;32677;-79
2023/09/25 04:15:16;;;;;;;0.08;0.08;;;;;;;19.53;59.75;100478.88;5362902;26;34551;-79
2023/09/25 04:17:44;;;;;;;0.10;0.10;;;;;;;19.65;59.56;100476.22;5363459;26;33898;-79
2023/09/25 04:20:17;;;;;;;0.00;0.00;;;;;;;19.49;61.06;100475.53;5365551;26;34328;-80
2023/09/25 04:22:45;;;;;;;0.00;0.00;;;;;;;19.63;59.97;100478.13;5346318;26;33956;-80
2023/09/25 04:25:19;;;;;;;1.20;0.85;;;;;;;19.63;59.49;100472.78;5364732;26;34052;-81
2023/09/25 04:27:53;;;;;;;0.20;0.20;;;;;;;19.92;58.63;100469.84;5345943;26;34653;-80
2023/09/25 04:30:22;;;;;;;0.30;0.10;;;;;;;19.57;59.76;100477.69;5345202;26;33317;-80
2023/09/25 04:32:56;;;;;;;1.90;1.17;;;;;;;19.76;59.45;100475.44;5345422;26;33032;-81
2023/09/25 04:35:24;;;;;;;0.20;0.13;;;;;;;19.72;59.88;100476.63;5346097;26;33894;-81
2023/09/25 04:37:53;;;;;;;0.35;0.35;;;;;;;20.08;58.45;100473.16;5326401;26;33021;-81
2023/09/25 04:40:22;;;;;;;2.10;0.55;;;;;;;19.91;59.37;100479.72;5327372;26;34257;-81
2023/09/25 04:42:52;;;;;;;0.13;0.13;;;;;;;19.98;59.63;100472.06;5362491;26;34741;-80
2023/09/25 04:45:20;;;;;;;0.08;0.08;;;;;;;20.03;59.67;100482.47;5342850;26;33772;-80
2023/09/25 04:47:48;;;;;;;0.40;0.40;;;;;;;20.06;59.68;100477.75;5341789;26;34072;-81
2023/09/25 04:50:16;;;;;;;0.00;0.00;;;;;;;19.87;60.82;100478.22;5361306;26;34716;-80
2023/09/25 04:52:46;;;;;;;1.50;0.40;;;;;;;20.14;59.73;100482.56;5342636;26;34171;-80
2023/09/25 04:55:14;;;;;;;0.70;0.45;;;;;;;20.06;60.42;100482.25;5343512;26;34307;-81
2023/09/25 04:57:45;;;;;;;0.00;0.00;;;;;;;20.05;60.81;100486.75;5342491;26;33668;-81
2023/09/25 05:00:16;;;;;;;0.00;0.00;;;;;;;20.12;61.08;100489.84;5361250;26;34673;-80
2023/09/25 05:02:46;;;;;;;0.10;0.10;;;;;;;19.96;62.57;100487.41;5361209;26;35064;-79
2023/09/25 05:05:15;;;;;;;0.47;0.00;;;;;;;19.93;62.49;100482.25;5360685;26;33573;-79
2023/09/25 05:07:44;;;;;;;0.30;0.30;;;;;;;19.99;62.26;100492.56;5323996;26;33686;-79
2023/09/25 05:10:14;;;;;;;0.00;0.00;;;;;;;20.04;62.08;100489.56;5360910;26;34155;-79
2023/09/25 05:12:42;;;;;;;0.45;0.28;;;;;;;20.09;62.12;100492.75;5343189;26;33573;-79
2023/09/25 05:15:14;;;;;;;0.00;0.00;;;;;;;20.13;62.21;100492.44;5343165;26;33299;-79
2023/09/25 05:17:43;;;;;;;0.00;0.00;;;;;;;20.14;62.33;100499.50;5361395;26;33615;-79
2023/09/25 05:20:16;;;;;;;0.75;0.75;;;;;;;20.04;62.75;100490.41;5342391;26;33695;-80
2023/09/25 05:22:46;;;;;;;0.35;0.35;;;;;;;20.24;62.14;100491.63;5343001;26;33577;-79
2023/09/25 05:25:15;;;;;;;0.15;0.15;;;;;;;20.12;62.68;100506.78;5361017;26;34135;-80
2023/09/25 05:27:46;;;;;;;0.43;0.43;;;;;;;20.10;63.03;100511.41;5343003;26;33384;-80
2023/09/25 05:30:15;;;;;;;0.45;0.40;;;;;;;20.10;63.14;100506.03;5324590;26;32995;-79
2023/09/25 05:32:48;;;;;;;0.08;0.08;;;;;;;20.24;62.90;100496.16;5343469;26;34405;-80
2023/09/25 05:35:16;;;;;;;0.77;0.65;;;;;;;20.14;63.10;100502.19;5324225;26;33151;-79
2023/09/25 05:37:45;;;;;;;0.65;0.20;;;;;;;20.14;63.44;100504.87;5363048;26;34038;-79
2023/09/25 05:40:15;;;;;;;0.05;0.05;;;;;;;20.11;64.28;100510.44;5343828;26;33709;-79
2023/09/25 05:42:45;;;;;;;5.07;1.65;;;;;;;20.17;64.14;100504.63;5361572;26;33563;-80
2023/09/25 05:45:14;;;;;;;0.25;0.25;;;;;;;20.50;62.22;100508.53;5343334;26;33189;-80
2023/09/25 05:47:43;;;;;;;0.55;0.45;;;;;;;20.12;63.89;100509.47;5362380;26;33666;-80
2023/09/25 05:50:11;;;;;;;0.00;0.00;;;;;;;19.92;65.14;100520.75;5324660;26;32867;-79
2023/09/25 05:52:54;;;;;;;0.60;0.60;;;;;;;19.94;64.74;100526.88;5344943;26;33021;-81
2023/09/25 05:55:32;;;;;;;2.30;0.65;;;;;;;20.28;63.58;100535.19;5344846;26;33393;-81
2023/09/25 05:58:00;;;;;;;0.28;0.20;;;;;;;20.42;62.93;100535.91;5343242;26;32722;-80
2023/09/25 06:00:29;;;;;;;0.30;0.30;;;;;;;20.25;63.78;100541.63;5361747;26;34019;-82
2023/09/25 06:02:57;;;;;;;0.15;0.15;;;;;;;20.33;63.82;100535.72;5360747;26;34561;-82
2023/09/25 06:05:27;;;;;;;0.22;0.22;;;;;;;20.48;63.63;100545.34;5344932;26;33264;-82
2023/09/25 06:07:55;;;;;;;0.05;0.05;;;;;;;20.49;63.38;100544.38;5363570;26;34369;-82
2023/09/25 06:10:23;;;;;;;0.00;0.00;;;;;;;20.51;61.34;100547.81;5343298;26;33117;-82
2023/09/25 06:12:50;;;;;;;0.65;0.65;;;;;;;20.63;59.14;100552.25;5343380;26;33758;-79
2023/09/25 06:15:18;;;;;;;0.40;0.20;;;;;;;20.48;60.12;100558.75;5361909;26;33089;-79
2023/09/25 06:17:46;;;;;;;0.10;0.10;;;;;;;20.71;59.52;100555.25;5343327;26;33612;-79
2023/09/25 06:20:15;;;;;;;0.28;0.28;;;;;;;20.49;61.23;100560.47;5343306;26;33472;-79
2023/09/25 06:22:46;;;;;;;1.85;0.55;;;;;;;20.58;60.84;100554.44;5343970;26;32884;-79
2023/09/25 06:25:17;;;;;;;0.20;0.20;;;;;;;20.81;60.10;100557.25;5360864;26;32519;-79
2023/09/25 06:27:46;;;;;;;0.30;0.20;;;;;;;20.84;60.16;100560.56;5361125;26;33199;-79
2023/09/25 06:30:16;;;;;;;0.03;0.00;;;;;;;20.84;60.03;100565.06;5324215;26;32932;-79
2023/09/25 06:32:44;;;;;;;0.03;0.03;;;;;;;21.03;59.19;100565.41;5341623;26;34342;-79
2023/09/25 06:35:12;;;;;;;0.30;0.30;;;;;;;20.97;58.66;100565.84;5342563;26;34779;-79
2023/09/25 06:37:40;;;;;;;0.98;0.43;;;;;;;21.08;58.60;100568.63;5341589;26;33231;-79
2023/09/25 06:40:15;;;;;;;1.87;0.65;;;;;;;21.09;58.81;100575.69;5341861;26;33691;-80
2023/09/25 06:42:44;;;;;;;0.10;0.10;;;;;;;21.19;58.67;100576.72;5360625;26;34480;-79
2023/09/25 06:45:11;;;;;;;0.03;0.03;;;;;;;20.67;59.24;100577.91;5341857;26;33843;-80
2023/09/25 06:47:40;;;;;;;0.47;0.40;;;;;;;20.91;58.94;100585.97;5360471;26;33375;-79
2023/09/25 06:50:08;;;;;;;0.57;0.45;;;;;;;20.91;59.05;100583.28;5343191;26;34084;-80
2023/09/25 06:52:36;;;;;;;0.88;0.52;;;;;;;20.83;58.90;100588.34;5361353;26;33519;-80
2023/09/25 06:55:04;;;;;;;0.00;0.00;;;;;;;20.97;58.72;100588.19;5360593;26;34492;-79
2023/09/25 06:57:32;;;;;;;1.45;0.60;;;;;;;20.52;59.64;100591.59;5360358;26;34103;-80
2023/09/25 07:00:00;;;;;;;0.00;0.00;;;;;;;20.86;59.75;100587.28;5361275;26;33901;-79
2023/09/25 07:02:29;;;;;;;0.13;0.13;;;;;;;21.28;57.98;100590.41;5342435;26;33650;-79
2023/09/25 07:04:59;;;;;;;0.47;0.47;;;;;;;21.40;58.05;100586.81;5342069;26;34294;-79
2023/09/25 07:07:27;;;;;;;0.52;0.32;;;;;;;21.23;58.82;100598.81;5342926;26;33741;-80
2023/09/25 07:09:55;;;;;;;0.43;0.43;;;;;;;21.42;58.17;100599.19;5341598;26;32822;-79
2023/09/25 07:12:23;;;;;;;0.13;0.13;;;;;;;21.40;58.76;100595.72;5360343;26;33862;-80
2023/09/25 07:14:56;;;;;;;0.10;0.10;;;;;;;21.13;58.65;100595.12;5342099;26;33647;-79
2023/09/25 07:17:24;;;;;;;0.40;0.40;;;;;;;21.45;58.13;100587.31;5360301;26;34108;-79
2023/09/25 07:19:52;;;;;;;1.08;0.70;;;;;;;21.22;58.86;100586.34;5359955;26;33613;-79
2023/09/25 07:22:22;;;;;;;0.40;0.25;;;;;;;21.48;58.23;100579.03;5360333;26;34583;-80
2023/09/25 07:24:50;;;;;;;0.70;0.70;;;;;;;21.57;58.18;100581.00;5342485;26;33863;-81
2023/09/25 07:27:18;;;;;;;0.10;0.10;;;;;;;21.39;58.92;100579.75;5338773;26;32588;-81
2023/09/25 07:29:46;;;;;;;7.75;0.95;;;;;;;21.68;57.46;100577.47;5359182;26;34258;-81
2023/09/25 07:32:15;;;;;;;0.00;0.00;;;;;;;21.59;57.78;100579.06;5360481;26;33501;-80
2023/09/25 07:34:43;;;;;;;0.20;0.20;;;;;;;21.68;57.85;100582.87;5359895;26;34929;-80
2023/09/25 07:37:12;;;;;;;1.00;0.50;;;;;;;20.98;60.25;100589.03;5341105;26;33342;-80
2023/09/25 07:39:40;;;;;;;0.03;0.03;;;;;;;21.09;59.30;100594.50;5360424;26;33781;-80
2023/09/25 07:42:09;;;;;;;0.00;0.00;;;;;;;21.67;58.51;100590.06;5361015;26;33229;-81
2023/09/25 07:44:38;;;;;;;0.20;0.20;;;;;;;21.90;57.20;100599.03;5342280;26;33727;-80
2023/09/25 07:47:12;;;;;;;0.20;0.20;;;;;;;21.89;57.33;100599.16;5325906;26;33126;-80
2023/09/25 07:49:45;;;;;;;0.50;0.50;;;;;;;22.10;56.54;100599.31;5346333;26;33494;-80
2023/09/25 07:52:18;;;;;;;0.30;0.30;;;;;;;21.47;58.56;100612.25;5364094;26;34217;-80
2023/09/25 07:54:48;;;;;;;;;;;;;;;21.83;57.91;100618.44;5346081;26;34793;-80
2023/09/25 07:57:19;;;;;;;18.17;0.68;;;;;;;21.93;57.37;100614.06;5364498;26;34075;-80
2023/09/25 07:59:50;;;;;;;0.00;0.00;;;;;;;22.03;57.44;100614.19;5364134;26;34214;-80
2023/09/25 08:02:20;;;;;;;2.37;0.90;;;;;;;22.13;57.62;100624.16;5345181;26;32929;-81
2023/09/25 08:04:48;;;;;;;0.52;0.52;;;;;;;22.60;56.93;100624.00;5346574;26;34238;-80
2023/09/25 08:07:18;;;;;;;1.92;0.70;;;;;;;22.31;57.33;100634.41;5344941;26;32608;-81
2023/09/25 08:09:55;;;;;;;0.35;0.20;;;;;;;21.89;58.11;100650.25;5364834;26;34960;-80
2023/09/25 08:12:23;;;;;;;0.30;0.30;;;;;;;22.48;56.49;100642.00;5364484;26;34052;-80
2023/09/25 08:14:51;;;;;;;0.13;0.13;;;;;;;22.47;56.85;100656.47;5364524;26;34215;-80
2023/09/25 08:17:18;;;;;;;1.52;0.62;;;;;;;22.52;56.71;100648.88;5345035;26;34359;-80
2023/09/25 08:19:51;;;;;;;1.20;0.60;;;;;;;22.90;55.80;100642.25;5345915;26;32800;-80
2023/09/25 08:22:18;;;;;;;0.35;0.35;;;;;;;22.57;56.39;100646.66;5345695;26;34954;-81
2023/09/25 08:24:47;;;;;;;1.55;0.75;;;;;;;22.44;58.66;100643.22;5364422;26;34162;-80
2023/09/25 08:27:15;;;;;;;0.10;0.10;;;;;;;22.43;57.03;100626.22;5345147;26;34430;-81
2023/09/25 08:29:43;;;;;;;0.10;0.10;;;;;;;23.01;56.52;100626.06;5345484;26;33995;-81
2023/09/25 08:32:10;;;;;;;0.20;0.20;;;;;;;22.75;56.68;100623.63;5344691;26;33831;-81
2023/09/25 08:34:38;;;;;;;1.08;0.60;;;;;;;23.02;55.99;100635.84;5344925;26;33098;-81
2023/09/25 08:37:06;;;;;;;0.73;0.73;;;;;;;22.92;56.56;100630.34;5327649;26;32837;-80
2023/09/25 08:39:35;;;;;;;2.33;1.80;;;;;;;23.52;55.03;100628.06;5345721;26;33993;-80
2023/09/25 08:42:03;;;;;;;0.00;0.00;;;;;;;23.70;53.67;100626.53;5327278;26;33351;-80
2023/09/25 08:44:31;;;;;;;0.00;0.00;;;;;;;23.33;55.54;100627.91;5364239;26;34870;-81
2023/09/25 08:46:59;;;;;;;0.10;0.10;;;;;;;23.44;54.85;100619.75;5346235;26;34441;-80
2023/09/25 08:49:27;;;;;;;0.47;0.32;;;;;;;23.36;55.42;100627.63;5362672;26;33629;-81
2023/09/25 08:51:55;;;;;;;1.85;0.85;;;;;;;23.21;55.85;100622.53;5345910;26;34667;-80
2023/09/25 08:54:23;;;;;;;0.73;0.73;;;;;;;23.56;55.11;100618.75;5327347;26;34084;-81
2023/09/25 08:56:51;;;;;;;0.82;0.65;;;;;;;23.34;56.33;100619.69;5364253;26;33553;-80
2023/09/25 08:59:19;;;;;;;0.20;0.20;;;;;;;23.38;56.33;100625.69;5327965;26;33261;-81
2023/09/25 09:01:47;;;;;;;0.40;0.15;;;;;;;24.00;54.81;100622.16;5345449;26;33925;-81
2023/09/25 09:04:15;;;;;;;0.45;0.45;;;;;;;23.91;54.44;100626.50;5344880;26;33920;-80
2023/09/25 09:06:43;;;;;;;0.68;0.68;;;;;;;24.04;54.31;100626.31;5363757;26;32249;-81
2023/09/25 09:09:12;;;;;;;0.52;0.52;;;;;;;24.15;53.67;100620.81;5326948;26;33303;-81
2023/09/25 09:11:49;;;;;;;1.95;0.73;;;;;;;24.21;52.80;100624.81;5345020;26;33673;-81
2023/09/25 09:14:46;;;;;;;0.10;0.10;;;;;;;23.87;54.03;100633.16;5363892;26;34907;-81
2023/09/25 09:17:14;;;;;;;0.32;0.32;;;;;;;23.71;54.21;100639.03;5331126;26;32649;-81
2023/09/25 09:19:48;;;;;;;0.50;0.30;;;;;;;23.76;54.33;100642.19;5325549;26;33031;-81
2023/09/25 09:22:18;;;;;;;1.17;0.45;;;;;;;23.82;54.52;100639.94;5363978;26;33168;-81
2023/09/25 09:24:47;;;;;;;1.55;1.25;;;;;;;23.69;54.94;100641.00;5345506;26;33643;-81
2023/09/25 09:27:20;;;;;;;0.10;0.10;;;;;;;23.62;55.11;100639.78;5364102;26;33164;-81
2023/09/25 09:29:52;;;;;;;1.73;0.95;;;;;;;23.38;55.83;100649.94;5345945;26;33929;-81
2023/09/25 09:32:19;;;;;;;0.32;0.32;;;;;;;23.41;55.87;100644.31;5327294;26;33740;-81
2023/09/25 09:34:48;;;;;;;2.08;0.57;;;;;;;23.42;55.80;100648.69;5344784;26;34785;-81
2023/09/25 09:37:17;;;;;;;0.75;0.40;;;;;;;23.33;55.85;100644.06;5364013;26;33264;-81
2023/09/25 09:39:52;;;;;;;0.20;0.20;;;;;;;23.24;56.39;100646.56;5343953;26;34468;-81
2023/09/25 09:42:21;;;;;;;0.10;0.10;;;;;;;23.55;55.42;100641.28;5346407;26;33996;-81
2023/09/25 09:44:48;;;;;;;0.10;0.10;;;;;;;23.58;55.06;100643.72;5325986;26;33993;-81
2023/09/25 09:47:18;;;;;;;0.70;0.52;;;;;;;23.66;54.84;100641.25;5345244;26;32614;-81
2023/09/25 09:49:47;;;;;;;2.28;1.10;;;;;;;23.57;55.02;100636.63;5326645;26;33512;-80
2023/09/25 09:52:17;;;;;;;2.17;0.85;;;;;;;23.23;56.60;100625.97;5326585;26;33712;-81
2023/09/25 09:54:46;;;;;;;8.57;1.73;;;;;;;23.55;55.94;100632.31;5326923;26;34011;-81
2023/09/25 09:57:14;;;;;;;0.85;0.85;;;;;;;23.77;55.71;100627.69;5308204;26;35189;-81
2023/09/25 09:59:42;;;;;;;0.10;0.10;;;;;;;23.76;54.94;100627.84;5307660;26;33620;-80
2023/09/25 10:02:10;;;;;;;0.70;0.70;;;;;;;23.86;55.09;100628.75;5326542;26;33230;-81
2023/09/25 10:04:38;;;;;;;0.98;0.68;;;;;;;23.87;55.52;100632.31;5344913;26;33881;-81
2023/09/25 10:07:08;;;;;;;0.20;0.20;;;;;;;23.75;55.51;100637.78;5345076;26;32554;-81
2023/09/25 10:09:37;;;;;;;0.47;0.37;;;;;;;23.97;55.29;100644.84;5308318;26;34095;-81
2023/09/25 10:12:05;;;;;;;0.50;0.50;;;;;;;23.92;54.96;100640.84;5326666;26;33036;-81
2023/09/25 10:14:40;;;;;;;3.47;0.35;;;;;;;24.01;54.67;100646.31;5307219;26;33073;-81
2023/09/25 10:17:08;;;;;;;0.13;0.13;;;;;;;23.67;55.58;100644.81;5326990;26;32622;-81
2023/09/25 10:19:36;;;;;;;0.60;0.57;;;;;;;23.72;55.98;100643.41;5343672;26;33640;-81
2023/09/25 10:22:26;;;;;;;0.50;0.50;;;;;;;24.15;55.53;100641.56;5343138;26;34157;-80
2023/09/25 10:25:11;;;;;;;0.62;0.62;;;;;;;24.02;55.29;100645.34;5343099;26;34378;-81
2023/09/25 10:27:40;;;;;;;5.05;1.55;;;;;;;24.50;54.19;100638.50;5344971;26;34975;-81
2023/09/25 10:30:14;;;;;;;2.80;1.05;;;;;;;24.35;53.89;100637.09;5363424;26;34050;-81
2023/09/25 10:33:09;;;;;;;1.37;1.12;;;;;;;23.69;55.73;100638.31;5317053;26;34349;-81
2023/09/25 10:35:43;;;;;;;2.55;0.85;;;;;;;23.93;55.64;100642.59;5323944;26;33252;-80
2023/09/25 10:38:19;;;;;;;0.30;0.30;;;;;;;24.03;55.81;100638.09;5342352;26;32911;-81
2023/09/25 10:40:51;;;;;;;0.10;0.10;;;;;;;23.49;56.48;100639.09;5342935;26;34048;-81
2023/09/25 10:43:20;;;;;;;0.47;0.37;;;;;;;23.85;55.74;100631.59;5343426;26;33938;-81
2023/09/25 10:45:48;;;;;;;0.03;0.03;;;;;;;23.93;55.29;100642.59;5327266;26;34096;-80
2023/09/25 10:48:16;;;;;;;0.55;0.55;;;;;;;23.77;56.22;100635.78;5346367;26;33426;-81
2023/09/25 10:50:44;;;;;;;0.37;0.28;;;;;;;24.02;55.89;100637.25;5365069;26;34416;-80
2023/09/25 10:53:13;;;;;;;0.25;0.25;;;;;;;24.14;55.44;100646.09;5364832;26;33657;-81
2023/09/25 10:55:42;;;;;;;1.48;0.73;;;;;;;24.23;55.35;100641.75;5365193;26;34019;-81
2023/09/25 10:58:12;;;;;;;0.20;0.10;;;;;;;24.39;54.65;100630.47;5325351;26;34270;-81
2023/09/25 11:00:41;;;;;;;0.93;0.60;;;;;;;24.53;53.88;100635.50;5328106;26;33249;-80
2023/09/25 11:03:09;;;;;;;0.40;0.40;;;;;;;24.69;53.54;100633.16;5346158;26;33876;-81
2023/09/25 11:05:38;;;;;;;0.22;0.20;;;;;;;24.48;53.93;100635.06;5364805;26;34042;-81
2023/09/25 11:08:07;;;;;;;1.23;0.57;;;;;;;24.61;53.89;100630.28;5364493;26;33654;-81
2023/09/25 11:10:36;;;;;;;1.10;0.80;;;;;;;24.67;53.99;100626.19;5365561;26;33628;-81
2023/09/25 11:13:04;;;;;;;2.08;1.02;;;;;;;24.76;54.09;100620.81;5346570;26;33955;-81
2023/09/25 11:15:37;;;;;;;0.70;0.70;;;;;;;24.88;53.73;100618.00;5364851;26;33707;-81
2023/09/25 11:18:10;;;;;;;0.30;0.30;;;;;;;24.84;53.47;100612.03;5365166;26;33264;-80
2023/09/25 11:20:38;;;;;;;0.57;0.57;;;;;;;25.02;53.65;100609.50;5364470;26;33788;-81
2023/09/25 11:23:09;;;;;;;1.05;0.52;;;;;;;25.08;53.17;100603.56;5328540;26;33103;-80
2023/09/25 11:25:52;;;;;;;0.70;0.70;;;;;;;25.00;53.92;100606.06;5369057;26;34992;-80
2023/09/25 11:28:21;;;;;;;16.77;0.75;;;;;;;25.29;53.03;100606.97;5348121;26;33276;-80
2023/09/25 11:30:50;;;;;;;0.40;0.40;;;;;;;25.33;53.39;100606.69;5367825;26;33548;-81
2023/09/25 11:33:21;;;;;;;1.37;0.32;;;;;;;25.60;51.70;100601.41;5330717;26;33102;-81
2023/09/25 11:35:52;;;;;;;3.20;0.50;;;;;;;25.91;50.85;100596.66;5330056;26;34211;-81
2023/09/25 11:38:23;;;;;;;1.50;0.75;;;;;;;25.98;50.31;100596.94;5367321;26;33278;-80